Time;durP1;ratioP1;P1;durP2;ratioP2;P2;SDS_P1;SDS_P2;PMS_P1;PMS_P2;Temp;Humidity;BMP_temperature;BMP_pressure;BME280_temperature;BME280_humidity;BME280_pressure;Samples;Min_cycle;Max_cycle;Signal;HPM_P1;HPM_P2
2022/11/27 00:00:21;;;;;;;0.00;0.00;;;;;;;;;;1740787;28;20226;-70
2022/11/27 00:01:15;;;;;;;0.10;0.10;;;;;;;;;;1740792;28;20207;-70
2022/11/27 00:02:06;;;;;;;0.00;0.00;;;;;;;;;;1740926;28;20536;-70
2022/11/27 00:02:58;;;;;;;0.00;0.00;;;;;;;;;;1741728;28;20201;-70
2022/11/27 00:03:49;;;;;;;0.00;0.00;;;;;;;;;;1740926;28;20238;-70
2022/11/27 00:04:41;;;;;;;0.00;0.00;;;;;;;;;;1740461;28;20207;-70
2022/11/27 00:05:32;;;;;;;0.10;0.10;;;;;;;;;;1734300;28;20465;-70
2022/11/27 00:06:25;;;;;;;0.00;0.00;;;;;;;;;;1741404;28;20207;-69
2022/11/27 00:07:16;;;;;;;0.00;0.00;;;;;;;;;;1740890;28;20663;-70
2022/11/27 00:08:08;;;;;;;0.00;0.00;;;;;;;;;;1741350;28;20195;-69
2022/11/27 00:09:00;;;;;;;0.00;0.00;;;;;;;;;;1740965;28;20662;-70
2022/11/27 00:09:52;;;;;;;0.00;0.00;;;;;;;;;;1740230;28;20210;-70
2022/11/27 00:10:43;;;;;;;0.00;0.00;;;;;;;;;;1741174;28;20256;-70
2022/11/27 00:11:38;;;;;;;0.10;0.10;;;;;;;;;;1740123;28;20239;-69
2022/11/27 00:12:30;;;;;;;0.00;0.00;;;;;;;;;;1741703;28;20589;-69
2022/11/27 00:13:22;;;;;;;0.00;0.00;;;;;;;;;;1741559;28;20285;-69
2022/11/27 00:14:14;;;;;;;0.08;0.08;;;;;;;;;;1740349;28;20238;-70
2022/11/27 00:15:06;;;;;;;0.00;0.00;;;;;;;;;;1739873;28;20203;-70
2022/11/27 00:15:58;;;;;;;0.00;0.00;;;;;;;;;;1740169;28;20235;-69
2022/11/27 00:16:50;;;;;;;0.00;0.00;;;;;;;;;;1740797;28;20631;-69
2022/11/27 00:17:41;;;;;;;0.00;0.00;;;;;;;;;;1740234;28;20683;-69
2022/11/27 00:18:34;;;;;;;0.00;0.00;;;;;;;;;;1740698;28;20640;-69
2022/11/27 00:19:25;;;;;;;0.00;0.00;;;;;;;;;;1740321;28;20654;-69
2022/11/27 00:20:17;;;;;;;0.00;0.00;;;;;;;;;;1740964;28;20564;-69
2022/11/27 00:21:10;;;;;;;0.00;0.00;;;;;;;;;;1740364;28;20207;-70
2022/11/27 00:22:02;;;;;;;0.00;0.00;;;;;;;;;;1740364;28;20199;-70
2022/11/27 00:22:53;;;;;;;0.03;0.03;;;;;;;;;;1740179;28;20245;-70
2022/11/27 00:23:45;;;;;;;0.00;0.00;;;;;;;;;;1740541;28;20290;-70
2022/11/27 00:24:37;;;;;;;0.00;0.00;;;;;;;;;;1741315;28;20218;-70
2022/11/27 00:25:29;;;;;;;0.00;0.00;;;;;;;;;;1741282;28;20635;-70
2022/11/27 00:26:20;;;;;;;0.00;0.00;;;;;;;;;;1741309;28;20234;-70
2022/11/27 00:27:12;;;;;;;0.00;0.00;;;;;;;;;;1733848;28;20200;-69
2022/11/27 00:28:03;;;;;;;0.00;0.00;;;;;;;;;;1738753;28;20218;-69
2022/11/27 00:28:56;;;;;;;0.00;0.00;;;;;;;;;;1740548;28;20509;-69
2022/11/27 00:29:47;;;;;;;0.00;0.00;;;;;;;;;;1741832;28;20214;-69
2022/11/27 00:30:40;;;;;;;0.00;0.00;;;;;;;;;;1740913;28;20257;-69
2022/11/27 00:31:33;;;;;;;0.00;0.00;;;;;;;;;;1740050;28;20353;-70
2022/11/27 00:32:25;;;;;;;0.00;0.00;;;;;;;;;;1740257;28;20621;-70
2022/11/27 00:33:16;;;;;;;0.00;0.00;;;;;;;;;;1740071;28;20195;-70
2022/11/27 00:34:09;;;;;;;0.00;0.00;;;;;;;;;;1740571;28;20203;-70
2022/11/27 00:35:00;;;;;;;0.00;0.00;;;;;;;;;;1744085;28;20218;-70
2022/11/27 00:35:52;;;;;;;0.00;0.00;;;;;;;;;;1746386;28;20213;-70
2022/11/27 00:36:43;;;;;;;0.00;0.00;;;;;;;;;;1740306;28;20302;-70
2022/11/27 00:37:35;;;;;;;0.00;0.00;;;;;;;;;;1740360;28;20655;-70
2022/11/27 00:38:26;;;;;;;0.00;0.00;;;;;;;;;;1739333;28;20227;-70
2022/11/27 00:39:18;;;;;;;0.00;0.00;;;;;;;;;;1740227;28;20664;-70
2022/11/27 00:40:10;;;;;;;0.00;0.00;;;;;;;;;;1740935;28;20225;-70
2022/11/27 00:41:06;;;;;;;0.00;0.00;;;;;;;;;;1739840;28;20217;-70
2022/11/27 00:41:57;;;;;;;0.08;0.08;;;;;;;;;;1740784;28;20196;-70
2022/11/27 00:42:49;;;;;;;0.00;0.00;;;;;;;;;;1739859;28;20206;-70
2022/11/27 00:43:40;;;;;;;0.00;0.00;;;;;;;;;;1740752;28;20218;-70
2022/11/27 00:44:33;;;;;;;0.00;0.00;;;;;;;;;;1741074;28;20232;-70
2022/11/27 00:45:24;;;;;;;0.00;0.00;;;;;;;;;;1740954;28;20207;-70
2022/11/27 00:46:16;;;;;;;0.00;0.00;;;;;;;;;;1740159;28;20203;-69
2022/11/27 00:47:08;;;;;;;0.00;0.00;;;;;;;;;;1740547;28;20214;-69
2022/11/27 00:48:01;;;;;;;0.00;0.00;;;;;;;;;;1741144;28;20203;-70
2022/11/27 00:48:52;;;;;;;0.00;0.00;;;;;;;;;;1733446;28;20219;-69
2022/11/27 00:49:45;;;;;;;0.00;0.00;;;;;;;;;;1740950;28;20222;-69
2022/11/27 00:50:36;;;;;;;0.00;0.00;;;;;;;;;;1740970;28;20217;-69
2022/11/27 00:51:29;;;;;;;0.00;0.00;;;;;;;;;;1740693;28;20214;-69
2022/11/27 00:52:20;;;;;;;0.00;0.00;;;;;;;;;;1740824;28;20290;-69
2022/11/27 00:53:12;;;;;;;0.00;0.00;;;;;;;;;;1742675;28;20585;-69
2022/11/27 00:54:03;;;;;;;0.00;0.00;;;;;;;;;;1747372;28;20647;-69
2022/11/27 00:54:55;;;;;;;0.03;0.03;;;;;;;;;;1741291;28;20213;-69
2022/11/27 00:55:46;;;;;;;0.00;0.00;;;;;;;;;;1740760;28;20600;-69
2022/11/27 00:56:39;;;;;;;0.00;0.00;;;;;;;;;;1740198;28;20234;-70
2022/11/27 00:57:30;;;;;;;0.00;0.00;;;;;;;;;;1740061;28;20203;-70
2022/11/27 00:58:22;;;;;;;0.00;0.00;;;;;;;;;;1740111;28;20654;-69
2022/11/27 00:59:13;;;;;;;0.00;0.00;;;;;;;;;;1744893;28;20667;-69
2022/11/27 01:00:06;;;;;;;0.00;0.00;;;;;;;;;;1748536;28;20198;-69
2022/11/27 01:00:58;;;;;;;0.00;0.00;;;;;;;;;;1748629;28;20206;-70
2022/11/27 01:01:50;;;;;;;0.00;0.00;;;;;;;;;;1747320;28;20213;-69
2022/11/27 01:02:43;;;;;;;0.00;0.00;;;;;;;;;;1749167;28;20319;-69
2022/11/27 01:03:35;;;;;;;0.00;0.00;;;;;;;;;;1747321;28;20206;-69
2022/11/27 01:04:26;;;;;;;0.00;0.00;;;;;;;;;;1744819;28;20227;-69
2022/11/27 01:05:18;;;;;;;0.00;0.00;;;;;;;;;;1747886;28;20271;-69
2022/11/27 01:06:10;;;;;;;0.00;0.00;;;;;;;;;;1747799;28;20241;-69
2022/11/27 01:07:02;;;;;;;0.00;0.00;;;;;;;;;;1747600;28;20205;-69
2022/11/27 01:07:53;;;;;;;0.00;0.00;;;;;;;;;;1743052;28;20240;-69
2022/11/27 01:08:45;;;;;;;0.00;0.00;;;;;;;;;;1746201;28;20230;-69
2022/11/27 01:09:36;;;;;;;0.00;0.00;;;;;;;;;;1744640;28;20207;-69
2022/11/27 01:10:28;;;;;;;0.00;0.00;;;;;;;;;;1747815;28;20202;-69
2022/11/27 01:11:20;;;;;;;0.00;0.00;;;;;;;;;;1746828;28;20245;-70
2022/11/27 01:12:12;;;;;;;0.00;0.00;;;;;;;;;;1739760;28;20679;-70
2022/11/27 01:13:03;;;;;;;0.00;0.00;;;;;;;;;;1740460;28;20285;-70
2022/11/27 01:13:56;;;;;;;0.00;0.00;;;;;;;;;;1747362;28;20223;-70
2022/11/27 01:14:47;;;;;;;0.00;0.00;;;;;;;;;;1746245;28;20617;-70
2022/11/27 01:15:39;;;;;;;0.00;0.00;;;;;;;;;;1747932;28;20308;-70
2022/11/27 01:16:31;;;;;;;0.00;0.00;;;;;;;;;;1741761;28;20304;-69
2022/11/27 01:17:23;;;;;;;0.00;0.00;;;;;;;;;;1747412;28;20199;-69
2022/11/27 01:18:15;;;;;;;0.00;0.00;;;;;;;;;;1747529;28;20605;-70
2022/11/27 01:19:08;;;;;;;0.00;0.00;;;;;;;;;;1747213;28;20225;-70
2022/11/27 01:19:59;;;;;;;0.05;0.05;;;;;;;;;;1746907;28;20567;-69
2022/11/27 01:20:52;;;;;;;0.00;0.00;;;;;;;;;;1747736;28;20265;-69
2022/11/27 01:21:43;;;;;;;0.00;0.00;;;;;;;;;;1746924;28;20230;-70
2022/11/27 01:22:35;;;;;;;0.00;0.00;;;;;;;;;;1747886;28;20206;-70
2022/11/27 01:23:26;;;;;;;0.00;0.00;;;;;;;;;;1748186;28;20202;-70
2022/11/27 01:24:18;;;;;;;0.03;0.03;;;;;;;;;;1747023;28;20651;-70
2022/11/27 01:25:10;;;;;;;0.10;0.10;;;;;;;;;;1747992;28;20237;-70
2022/11/27 01:26:02;;;;;;;0.00;0.00;;;;;;;;;;1744711;28;20520;-70
2022/11/27 01:26:53;;;;;;;0.00;0.00;;;;;;;;;;1744636;28;20244;-70
2022/11/27 01:27:45;;;;;;;0.00;0.00;;;;;;;;;;1743655;28;20597;-70
2022/11/27 01:28:38;;;;;;;0.00;0.00;;;;;;;;;;1744807;28;20240;-70
2022/11/27 01:29:30;;;;;;;0.00;0.00;;;;;;;;;;1744541;28;20217;-70
2022/11/27 01:30:21;;;;;;;0.00;0.00;;;;;;;;;;1744560;28;20207;-70
2022/11/27 01:31:15;;;;;;;0.00;0.00;;;;;;;;;;1741640;28;20218;-70
2022/11/27 01:32:06;;;;;;;0.00;0.00;;;;;;;;;;1747283;28;20655;-70
2022/11/27 01:32:58;;;;;;;0.03;0.03;;;;;;;;;;1747923;28;20218;-70
2022/11/27 01:33:53;;;;;;;0.00;0.00;;;;;;;;;;1747282;28;20217;-70
2022/11/27 01:34:45;;;;;;;0.10;0.10;;;;;;;;;;1746008;28;20520;-70
2022/11/27 01:35:36;;;;;;;0.00;0.00;;;;;;;;;;1747552;28;20634;-69
2022/11/27 01:36:28;;;;;;;0.00;0.00;;;;;;;;;;1741837;28;20203;-69
2022/11/27 01:37:20;;;;;;;0.00;0.00;;;;;;;;;;1747112;28;20770;-69
2022/11/27 01:38:12;;;;;;;0.00;0.00;;;;;;;;;;1746714;28;20198;-70
2022/11/27 01:39:03;;;;;;;0.00;0.00;;;;;;;;;;1746806;28;20233;-70
2022/11/27 01:39:55;;;;;;;0.00;0.00;;;;;;;;;;1746545;28;20230;-70
2022/11/27 01:40:46;;;;;;;0.00;0.00;;;;;;;;;;1747412;28;20203;-69
2022/11/27 01:41:39;;;;;;;0.00;0.00;;;;;;;;;;1746858;28;20207;-70
2022/11/27 01:42:30;;;;;;;0.00;0.00;;;;;;;;;;1745783;28;20198;-70
2022/11/27 01:43:36;;;;;;;0.00;0.00;;;;;;;;;;1742675;28;20717;-70
2022/11/27 01:44:46;;;;;;;0.00;0.00;;;;;;;;;;1748827;28;20197;-70
2022/11/27 01:45:38;;;;;;;0.00;0.00;;;;;;;;;;1740550;28;20215;-70
2022/11/27 01:46:32;;;;;;;0.00;0.00;;;;;;;;;;1748713;28;20240;-71
2022/11/27 01:47:28;;;;;;;0.00;0.00;;;;;;;;;;1746707;28;20582;-70
2022/11/27 01:48:19;;;;;;;0.00;0.00;;;;;;;;;;1742392;28;20392;-70
2022/11/27 01:49:21;;;;;;;0.00;0.00;;;;;;;;;;1746984;28;20190;-70
2022/11/27 01:50:16;;;;;;;0.00;0.00;;;;;;;;;;1747481;28;20644;-70
2022/11/27 01:51:08;;;;;;;0.00;0.00;;;;;;;;;;1743100;28;20202;-70
2022/11/27 01:52:01;;;;;;;0.00;0.00;;;;;;;;;;1746037;28;20202;-70
2022/11/27 01:52:54;;;;;;;0.00;0.00;;;;;;;;;;1746587;28;20206;-71
2022/11/27 01:53:46;;;;;;;0.00;0.00;;;;;;;;;;1747062;28;20732;-70
2022/11/27 01:54:40;;;;;;;0.05;0.05;;;;;;;;;;1748221;28;20266;-70
2022/11/27 01:55:33;;;;;;;0.00;0.00;;;;;;;;;;1747497;28;20245;-71
2022/11/27 01:56:25;;;;;;;0.00;0.00;;;;;;;;;;1743780;28;20368;-70
2022/11/27 01:57:18;;;;;;;0.00;0.00;;;;;;;;;;1747310;28;20314;-70
2022/11/27 01:58:11;;;;;;;0.10;0.10;;;;;;;;;;1746701;28;20532;-70
2022/11/27 01:59:03;;;;;;;0.10;0.10;;;;;;;;;;1746784;28;20203;-70
2022/11/27 01:59:56;;;;;;;0.00;0.00;;;;;;;;;;1744857;28;20888;-70
2022/11/27 02:00:47;;;;;;;0.20;0.20;;;;;;;;;;1740757;28;20475;-70
2022/11/27 02:01:39;;;;;;;0.00;0.00;;;;;;;;;;1745009;28;20633;-70
2022/11/27 02:02:30;;;;;;;0.00;0.00;;;;;;;;;;1747975;28;20226;-69
2022/11/27 02:03:22;;;;;;;0.00;0.00;;;;;;;;;;1742763;28;20257;-69
2022/11/27 02:04:13;;;;;;;0.00;0.00;;;;;;;;;;1745039;28;20631;-69
2022/11/27 02:05:07;;;;;;;0.00;0.00;;;;;;;;;;1747354;28;20309;-69
2022/11/27 02:05:59;;;;;;;0.00;0.00;;;;;;;;;;1748003;28;20234;-69
2022/11/27 02:06:50;;;;;;;0.00;0.00;;;;;;;;;;1747378;28;20240;-70
2022/11/27 02:07:42;;;;;;;0.10;0.10;;;;;;;;;;1744013;28;20198;-70
2022/11/27 02:08:33;;;;;;;0.00;0.00;;;;;;;;;;1744187;28;20293;-70
2022/11/27 02:09:25;;;;;;;0.00;0.00;;;;;;;;;;1746913;28;20279;-70
2022/11/27 02:10:17;;;;;;;0.00;0.00;;;;;;;;;;1747289;28;20301;-69
2022/11/27 02:11:13;;;;;;;0.00;0.00;;;;;;;;;;1746606;28;20206;-70
2022/11/27 02:12:07;;;;;;;0.00;0.00;;;;;;;;;;1746751;28;20221;-70
2022/11/27 02:13:01;;;;;;;0.00;0.00;;;;;;;;;;1746550;28;20202;-69
2022/11/27 02:13:54;;;;;;;0.03;0.03;;;;;;;;;;1747252;28;20225;-69
2022/11/27 02:14:50;;;;;;;0.00;0.00;;;;;;;;;;1746363;28;20249;-69
2022/11/27 02:15:46;;;;;;;0.00;0.00;;;;;;;;;;1747610;28;20639;-69
2022/11/27 02:16:42;;;;;;;0.10;0.10;;;;;;;;;;1746373;28;20237;-69
2022/11/27 02:17:39;;;;;;;0.00;0.00;;;;;;;;;;1745081;28;20258;-70
2022/11/27 02:18:33;;;;;;;0.00;0.00;;;;;;;;;;1746248;28;20206;-70
2022/11/27 02:19:26;;;;;;;0.00;0.00;;;;;;;;;;1747133;28;20225;-70
2022/11/27 02:20:25;;;;;;;0.00;0.00;;;;;;;;;;1747431;28;20213;-70
2022/11/27 02:21:19;;;;;;;0.08;0.08;;;;;;;;;;1746405;28;20806;-70
2022/11/27 02:22:16;;;;;;;0.08;0.08;;;;;;;;;;1746981;28;20209;-70
2022/11/27 02:23:18;;;;;;;0.00;0.00;;;;;;;;;;1746420;28;20226;-70
2022/11/27 02:24:25;;;;;;;0.00;0.00;;;;;;;;;;1748654;28;20189;-70
2022/11/27 02:25:20;;;;;;;0.00;0.00;;;;;;;;;;1746549;28;20257;-70
2022/11/27 02:26:25;;;;;;;0.10;0.10;;;;;;;;;;1744025;28;20203;-70
2022/11/27 02:27:33;;;;;;;0.00;0.00;;;;;;;;;;1741369;28;20203;-70
2022/11/27 02:28:31;;;;;;;0.00;0.00;;;;;;;;;;1748055;28;20195;-70
2022/11/27 02:29:26;;;;;;;0.00;0.00;;;;;;;;;;1749532;28;20675;-70
2022/11/27 02:30:18;;;;;;;0.08;0.08;;;;;;;;;;1748658;28;20203;-70
2022/11/27 02:31:10;;;;;;;0.00;0.00;;;;;;;;;;1746662;28;20207;-69
2022/11/27 02:32:07;;;;;;;0.10;0.10;;;;;;;;;;1748289;28;20201;-69
2022/11/27 02:33:00;;;;;;;0.00;0.00;;;;;;;;;;1748878;28;20191;-69
2022/11/27 02:33:53;;;;;;;0.00;0.00;;;;;;;;;;1748673;28;20202;-69
2022/11/27 02:34:47;;;;;;;0.00;0.00;;;;;;;;;;1746198;28;20566;-69
2022/11/27 02:35:41;;;;;;;0.03;0.03;;;;;;;;;;1748676;28;20234;-70
2022/11/27 02:36:34;;;;;;;0.00;0.00;;;;;;;;;;1748874;28;20514;-70
2022/11/27 02:37:29;;;;;;;0.00;0.00;;;;;;;;;;1747629;28;20305;-70
2022/11/27 02:38:25;;;;;;;0.00;0.00;;;;;;;;;;1748348;28;20190;-70
2022/11/27 02:39:19;;;;;;;0.00;0.00;;;;;;;;;;1748661;28;20220;-70
2022/11/27 02:40:12;;;;;;;0.00;0.00;;;;;;;;;;1749134;28;20592;-70
2022/11/27 02:41:06;;;;;;;0.10;0.10;;;;;;;;;;1745043;28;20250;-69
2022/11/27 02:42:00;;;;;;;0.10;0.10;;;;;;;;;;1746855;28;20212;-69
2022/11/27 02:42:54;;;;;;;0.00;0.00;;;;;;;;;;1747937;28;20210;-69
2022/11/27 02:43:48;;;;;;;0.10;0.10;;;;;;;;;;1748128;28;20644;-69
2022/11/27 02:44:43;;;;;;;0.00;0.00;;;;;;;;;;1747720;28;20256;-69
2022/11/27 02:45:36;;;;;;;0.08;0.08;;;;;;;;;;1741731;28;20211;-69
2022/11/27 02:46:28;;;;;;;0.00;0.00;;;;;;;;;;1742714;28;20218;-70
2022/11/27 02:47:20;;;;;;;0.00;0.00;;;;;;;;;;1748392;28;20201;-70
2022/11/27 02:48:12;;;;;;;0.00;0.00;;;;;;;;;;1747607;28;20233;-70
2022/11/27 02:49:06;;;;;;;0.10;0.10;;;;;;;;;;1748033;28;20206;-70
2022/11/27 02:49:58;;;;;;;0.00;0.00;;;;;;;;;;1749025;28;20221;-70
2022/11/27 02:50:51;;;;;;;0.00;0.00;;;;;;;;;;1747509;28;20248;-70
2022/11/27 02:51:45;;;;;;;0.00;0.00;;;;;;;;;;1744756;28;20860;-70
2022/11/27 02:52:38;;;;;;;0.00;0.00;;;;;;;;;;1747599;28;20202;-70
2022/11/27 02:53:31;;;;;;;0.10;0.10;;;;;;;;;;1748344;28;20240;-70
2022/11/27 02:54:25;;;;;;;0.00;0.00;;;;;;;;;;1747534;28;20373;-70
2022/11/27 02:55:18;;;;;;;0.00;0.00;;;;;;;;;;1748786;28;20226;-70
2022/11/27 02:56:12;;;;;;;0.00;0.00;;;;;;;;;;1747783;28;20281;-69
2022/11/27 02:57:04;;;;;;;0.00;0.00;;;;;;;;;;1748204;28;20234;-69
2022/11/27 02:57:57;;;;;;;0.00;0.00;;;;;;;;;;1747694;28;20202;-69
2022/11/27 02:58:49;;;;;;;0.03;0.03;;;;;;;;;;1747967;28;20221;-70
2022/11/27 02:59:45;;;;;;;0.00;0.00;;;;;;;;;;1747389;28;20210;-69
2022/11/27 03:00:37;;;;;;;0.10;0.10;;;;;;;;;;1748688;28;20524;-69
2022/11/27 03:01:32;;;;;;;0.00;0.00;;;;;;;;;;1746724;28;20205;-70
2022/11/27 03:02:26;;;;;;;0.00;0.00;;;;;;;;;;1748185;28;20272;-70
2022/11/27 03:03:20;;;;;;;0.00;0.00;;;;;;;;;;1749067;28;20527;-69
2022/11/27 03:04:15;;;;;;;0.00;0.00;;;;;;;;;;1746737;28;20667;-69
2022/11/27 03:05:09;;;;;;;0.00;0.00;;;;;;;;;;1747651;28;20253;-69
2022/11/27 03:06:02;;;;;;;0.20;0.20;;;;;;;;;;1745284;28;20579;-70
2022/11/27 03:06:56;;;;;;;0.10;0.10;;;;;;;;;;1746338;28;20202;-70
2022/11/27 03:07:50;;;;;;;0.00;0.00;;;;;;;;;;1747641;28;20210;-70
2022/11/27 03:08:47;;;;;;;0.00;0.00;;;;;;;;;;1747802;28;20591;-70
2022/11/27 03:09:39;;;;;;;0.10;0.10;;;;;;;;;;1747898;28;20233;-70
2022/11/27 03:10:33;;;;;;;0.00;0.00;;;;;;;;;;1748489;28;20205;-70
2022/11/27 03:11:24;;;;;;;0.00;0.00;;;;;;;;;;1743077;28;20235;-70
2022/11/27 03:12:18;;;;;;;0.00;0.00;;;;;;;;;;1748352;28;20195;-70
2022/11/27 03:13:09;;;;;;;0.00;0.00;;;;;;;;;;1747385;28;20257;-70
2022/11/27 03:14:02;;;;;;;0.00;0.00;;;;;;;;;;1748368;28;20202;-70
2022/11/27 03:14:55;;;;;;;0.00;0.00;;;;;;;;;;1747120;28;20237;-70
2022/11/27 03:15:52;;;;;;;0.10;0.10;;;;;;;;;;1748527;28;20202;-70
2022/11/27 03:16:46;;;;;;;0.03;0.03;;;;;;;;;;1747985;28;20334;-70
2022/11/27 03:17:47;;;;;;;0.03;0.03;;;;;;;;;;1748360;28;20842;-70
2022/11/27 03:18:41;;;;;;;0.10;0.10;;;;;;;;;;1745830;28;20203;-70
2022/11/27 03:19:39;;;;;;;0.10;0.10;;;;;;;;;;1747147;28;20199;-70
2022/11/27 03:20:32;;;;;;;0.20;0.20;;;;;;;;;;1748622;28;20198;-70
2022/11/27 03:21:28;;;;;;;0.00;0.00;;;;;;;;;;1749303;28;20193;-69
2022/11/27 03:22:19;;;;;;;0.00;0.00;;;;;;;;;;1741691;28;20502;-69
2022/11/27 03:23:11;;;;;;;0.00;0.00;;;;;;;;;;1748477;28;20199;-69
2022/11/27 03:24:03;;;;;;;0.05;0.05;;;;;;;;;;1748083;28;20670;-69
2022/11/27 03:24:55;;;;;;;0.00;0.00;;;;;;;;;;1745925;28;20636;-69
2022/11/27 03:25:46;;;;;;;0.10;0.10;;;;;;;;;;1748353;28;20234;-69
2022/11/27 03:26:39;;;;;;;0.00;0.00;;;;;;;;;;1748263;28;20206;-69
2022/11/27 03:27:32;;;;;;;0.10;0.10;;;;;;;;;;1746608;28;20281;-69
2022/11/27 03:28:24;;;;;;;0.10;0.10;;;;;;;;;;1743822;28;20203;-69
2022/11/27 03:29:17;;;;;;;0.00;0.00;;;;;;;;;;1745821;28;20211;-69
2022/11/27 03:30:12;;;;;;;0.10;0.10;;;;;;;;;;1747438;28;20202;-69
2022/11/27 03:31:03;;;;;;;0.10;0.10;;;;;;;;;;1748568;28;20220;-70
2022/11/27 03:31:56;;;;;;;0.10;0.10;;;;;;;;;;1746236;28;20218;-70
2022/11/27 03:32:47;;;;;;;0.00;0.00;;;;;;;;;;1741792;28;20245;-70
2022/11/27 03:33:39;;;;;;;0.20;0.20;;;;;;;;;;1745858;28;20217;-70
2022/11/27 03:34:31;;;;;;;0.00;0.00;;;;;;;;;;1748344;28;20687;-70
2022/11/27 03:35:24;;;;;;;0.10;0.10;;;;;;;;;;1747379;28;20218;-70
2022/11/27 03:36:16;;;;;;;0.03;0.03;;;;;;;;;;1746782;28;20249;-69
2022/11/27 03:37:08;;;;;;;0.00;0.00;;;;;;;;;;1748094;28;20206;-69
2022/11/27 03:41:26;;;;;;;0.10;0.10;;;;;;;;;;1744886;28;20257;-69
2022/11/27 03:42:20;;;;;;;0.10;0.10;;;;;;;;;;1745559;28;20636;-70
2022/11/27 03:43:14;;;;;;;0.00;0.00;;;;;;;;;;1746101;28;20198;-70
2022/11/27 03:44:07;;;;;;;0.10;0.10;;;;;;;;;;1748214;28;20244;-70
2022/11/27 03:45:04;;;;;;;0.00;0.00;;;;;;;;;;1749342;28;20563;-70
2022/11/27 03:45:58;;;;;;;0.05;0.05;;;;;;;;;;1747830;28;20194;-69
2022/11/27 03:46:59;;;;;;;0.00;0.00;;;;;;;;;;1747998;28;20210;-69
2022/11/27 03:47:55;;;;;;;0.05;0.05;;;;;;;;;;1749749;28;20218;-69
2022/11/27 03:48:49;;;;;;;0.00;0.00;;;;;;;;;;1748198;28;20507;-69
2022/11/27 03:49:48;;;;;;;0.00;0.00;;;;;;;;;;1748645;28;20233;-69
2022/11/27 03:50:45;;;;;;;0.00;0.00;;;;;;;;;;1741671;28;20218;-69
2022/11/27 03:51:39;;;;;;;0.10;0.10;;;;;;;;;;1748566;28;20198;-70
2022/11/27 03:52:34;;;;;;;0.13;0.13;;;;;;;;;;1748303;28;20206;-70
2022/11/27 03:53:30;;;;;;;0.10;0.10;;;;;;;;;;1747492;28;20316;-70
2022/11/27 03:54:27;;;;;;;0.05;0.05;;;;;;;;;;1748650;28;20330;-70
2022/11/27 03:55:22;;;;;;;0.00;0.00;;;;;;;;;;1746891;28;20232;-70
2022/11/27 03:56:18;;;;;;;0.00;0.00;;;;;;;;;;1747652;28;20236;-70
2022/11/27 03:57:14;;;;;;;0.00;0.00;;;;;;;;;;1748357;28;20666;-70
2022/11/27 03:58:09;;;;;;;0.00;0.00;;;;;;;;;;1747592;28;20229;-70
2022/11/27 03:59:02;;;;;;;0.00;0.00;;;;;;;;;;1747548;28;20206;-70
2022/11/27 03:59:55;;;;;;;0.00;0.00;;;;;;;;;;1748559;28;20206;-70
2022/11/27 04:00:48;;;;;;;0.10;0.10;;;;;;;;;;1748185;28;20293;-70
2022/11/27 04:01:41;;;;;;;0.00;0.00;;;;;;;;;;1747526;28;20279;-70
2022/11/27 04:02:39;;;;;;;0.00;0.00;;;;;;;;;;1748161;28;20198;-70
2022/11/27 04:03:31;;;;;;;0.08;0.08;;;;;;;;;;1748115;28;20546;-70
2022/11/27 04:04:22;;;;;;;0.00;0.00;;;;;;;;;;1746841;28;20202;-70
2022/11/27 04:05:15;;;;;;;0.15;0.15;;;;;;;;;;1748088;28;20194;-70
2022/11/27 04:06:06;;;;;;;0.00;0.00;;;;;;;;;;1748052;28;20218;-69
2022/11/27 04:06:58;;;;;;;0.00;0.00;;;;;;;;;;1748164;28;20206;-69
2022/11/27 04:07:49;;;;;;;0.08;0.08;;;;;;;;;;1745546;28;20210;-69
2022/11/27 04:08:42;;;;;;;0.10;0.10;;;;;;;;;;1748044;28;20199;-69
2022/11/27 04:09:33;;;;;;;0.10;0.10;;;;;;;;;;1747493;28;20210;-69
2022/11/27 04:10:25;;;;;;;0.00;0.00;;;;;;;;;;1748680;28;20198;-69
2022/11/27 04:11:16;;;;;;;0.00;0.00;;;;;;;;;;1747364;28;20508;-70
2022/11/27 04:12:08;;;;;;;0.10;0.10;;;;;;;;;;1748240;28;20281;-70
2022/11/27 04:12:59;;;;;;;0.00;0.00;;;;;;;;;;1748700;28;20583;-70
2022/11/27 04:13:51;;;;;;;0.00;0.00;;;;;;;;;;1747680;28;20205;-70
2022/11/27 04:14:42;;;;;;;0.05;0.05;;;;;;;;;;1747592;28;20556;-70
2022/11/27 04:15:33;;;;;;;0.00;0.00;;;;;;;;;;1748458;28;20186;-70
2022/11/27 04:16:25;;;;;;;0.00;0.00;;;;;;;;;;1748159;28;20194;-70
2022/11/27 04:17:18;;;;;;;0.10;0.10;;;;;;;;;;1748187;28;20515;-70
2022/11/27 04:18:10;;;;;;;0.00;0.00;;;;;;;;;;1748367;28;20214;-70
2022/11/27 04:19:01;;;;;;;0.00;0.00;;;;;;;;;;1747990;28;20214;-70
2022/11/27 04:19:53;;;;;;;0.00;0.00;;;;;;;;;;1747399;28;20198;-70
2022/11/27 04:20:44;;;;;;;0.00;0.00;;;;;;;;;;1748485;28;20229;-70
2022/11/27 04:21:36;;;;;;;0.00;0.00;;;;;;;;;;1746870;28;20241;-69
2022/11/27 04:22:27;;;;;;;0.10;0.10;;;;;;;;;;1747864;28;20207;-69
2022/11/27 04:23:19;;;;;;;0.00;0.00;;;;;;;;;;1747829;28;20562;-69
2022/11/27 04:24:10;;;;;;;0.10;0.10;;;;;;;;;;1747828;28;20237;-69
2022/11/27 04:25:06;;;;;;;0.00;0.00;;;;;;;;;;1745217;28;20230;-69
2022/11/27 04:25:57;;;;;;;0.00;0.00;;;;;;;;;;1747238;28;20655;-70
2022/11/27 04:26:49;;;;;;;0.00;0.00;;;;;;;;;;1747811;28;20208;-70
2022/11/27 04:27:40;;;;;;;0.10;0.10;;;;;;;;;;1747433;28;20202;-70
2022/11/27 04:28:32;;;;;;;0.00;0.00;;;;;;;;;;1747976;28;20198;-70
2022/11/27 04:29:23;;;;;;;0.05;0.05;;;;;;;;;;1747675;28;20656;-70
2022/11/27 04:30:15;;;;;;;0.00;0.00;;;;;;;;;;1748296;28;20240;-70
2022/11/27 04:31:06;;;;;;;0.10;0.10;;;;;;;;;;1749446;28;21388;-69
2022/11/27 04:31:58;;;;;;;0.00;0.00;;;;;;;;;;1747971;28;20260;-69
2022/11/27 04:32:51;;;;;;;0.10;0.10;;;;;;;;;;1747422;28;20248;-69
2022/11/27 04:33:43;;;;;;;0.10;0.10;;;;;;;;;;1747994;28;20446;-69
2022/11/27 04:34:34;;;;;;;0.00;0.00;;;;;;;;;;1748174;28;20203;-69
2022/11/27 04:35:26;;;;;;;0.00;0.00;;;;;;;;;;1748477;28;20213;-69
2022/11/27 04:36:17;;;;;;;0.00;0.00;;;;;;;;;;1747895;28;20623;-70
2022/11/27 04:37:09;;;;;;;0.00;0.00;;;;;;;;;;1748096;28;20256;-70
2022/11/27 04:38:00;;;;;;;0.10;0.10;;;;;;;;;;1747101;28;20240;-70
2022/11/27 04:38:52;;;;;;;0.20;0.20;;;;;;;;;;1747681;28;20202;-70
2022/11/27 04:39:43;;;;;;;0.10;0.10;;;;;;;;;;1747001;28;20211;-70
2022/11/27 04:40:35;;;;;;;0.10;0.10;;;;;;;;;;1748132;28;20199;-70
2022/11/27 04:41:28;;;;;;;0.10;0.10;;;;;;;;;;1747189;28;20206;-70
2022/11/27 04:42:20;;;;;;;0.08;0.08;;;;;;;;;;1747970;28;20536;-70
2022/11/27 04:43:11;;;;;;;0.15;0.15;;;;;;;;;;1748325;28;20202;-70
2022/11/27 04:44:03;;;;;;;0.10;0.10;;;;;;;;;;1748102;28;20570;-70
2022/11/27 04:44:54;;;;;;;0.00;0.00;;;;;;;;;;1748569;28;20213;-70
2022/11/27 04:45:46;;;;;;;0.00;0.00;;;;;;;;;;1748155;28;20260;-70
2022/11/27 04:46:37;;;;;;;0.10;0.10;;;;;;;;;;1746432;28;20206;-69
2022/11/27 04:47:29;;;;;;;0.00;0.00;;;;;;;;;;1748723;28;20194;-69
2022/11/27 04:48:21;;;;;;;0.00;0.00;;;;;;;;;;1748245;28;20198;-69
2022/11/27 04:49:14;;;;;;;0.00;0.00;;;;;;;;;;1748400;28;20199;-69
2022/11/27 04:50:05;;;;;;;0.00;0.00;;;;;;;;;;1749248;28;20250;-69
2022/11/27 04:50:57;;;;;;;0.10;0.10;;;;;;;;;;1747339;28;20527;-70
2022/11/27 04:51:49;;;;;;;0.10;0.10;;;;;;;;;;1747878;28;20203;-70
2022/11/27 04:52:41;;;;;;;0.10;0.10;;;;;;;;;;1747403;28;20634;-70
2022/11/27 04:53:32;;;;;;;0.05;0.05;;;;;;;;;;1747952;28;20319;-70
2022/11/27 04:54:24;;;;;;;0.10;0.10;;;;;;;;;;1747157;28;20249;-70
2022/11/27 04:55:16;;;;;;;0.00;0.00;;;;;;;;;;1745880;28;20286;-70
2022/11/27 04:56:08;;;;;;;0.10;0.10;;;;;;;;;;1747143;28;20289;-70
2022/11/27 04:56:59;;;;;;;0.00;0.00;;;;;;;;;;1747742;28;20215;-70
2022/11/27 04:57:51;;;;;;;0.00;0.00;;;;;;;;;;1747509;28;20558;-70
2022/11/27 04:58:42;;;;;;;0.10;0.10;;;;;;;;;;1747713;28;20614;-70
2022/11/27 04:59:34;;;;;;;0.10;0.10;;;;;;;;;;1746810;28;20257;-70
2022/11/27 05:00:25;;;;;;;0.10;0.10;;;;;;;;;;1748206;28;20244;-70
2022/11/27 05:01:17;;;;;;;0.05;0.05;;;;;;;;;;1747115;28;20241;-69
2022/11/27 05:02:08;;;;;;;0.10;0.10;;;;;;;;;;1747899;28;20536;-69
2022/11/27 05:03:00;;;;;;;0.08;0.08;;;;;;;;;;1747080;28;20206;-69
2022/11/27 05:03:53;;;;;;;0.00;0.00;;;;;;;;;;1747914;28;20639;-69
2022/11/27 05:04:45;;;;;;;0.00;0.00;;;;;;;;;;1747359;28;20210;-69
2022/11/27 05:05:36;;;;;;;0.00;0.00;;;;;;;;;;1748083;28;20268;-69
2022/11/27 05:06:28;;;;;;;0.00;0.00;;;;;;;;;;1747189;28;20734;-70
2022/11/27 05:07:19;;;;;;;0.03;0.03;;;;;;;;;;1747627;28;20202;-70
2022/11/27 05:08:11;;;;;;;0.13;0.13;;;;;;;;;;1747167;28;20202;-70
2022/11/27 05:09:02;;;;;;;0.00;0.00;;;;;;;;;;1747679;28;20217;-70
2022/11/27 05:09:54;;;;;;;0.00;0.00;;;;;;;;;;1747035;28;20203;-70
2022/11/27 05:10:46;;;;;;;0.03;0.03;;;;;;;;;;1748072;28;20234;-70
2022/11/27 05:11:38;;;;;;;0.10;0.10;;;;;;;;;;1747022;28;20217;-69
2022/11/27 05:12:29;;;;;;;0.10;0.10;;;;;;;;;;1747585;28;20620;-69
2022/11/27 05:13:21;;;;;;;0.00;0.00;;;;;;;;;;1747155;28;20252;-69
2022/11/27 05:14:16;;;;;;;0.00;0.00;;;;;;;;;;1748450;28;20213;-69
2022/11/27 05:15:09;;;;;;;0.10;0.10;;;;;;;;;;1748929;28;20202;-69
2022/11/27 05:16:01;;;;;;;0.00;0.00;;;;;;;;;;1747061;28;20547;-69
2022/11/27 05:16:54;;;;;;;0.00;0.00;;;;;;;;;;1747755;28;20206;-69
2022/11/27 05:17:45;;;;;;;0.00;0.00;;;;;;;;;;1747194;28;20230;-70
2022/11/27 05:18:37;;;;;;;0.03;0.03;;;;;;;;;;1747491;28;20289;-69
2022/11/27 05:19:30;;;;;;;0.08;0.08;;;;;;;;;;1747346;28;20609;-69
2022/11/27 05:20:22;;;;;;;0.08;0.08;;;;;;;;;;1747931;28;20221;-69